sensor_id;sensor_type;location;lat;lon;timestamp;P1;durP1;ratioP1;P2;durP2;ratioP2
76617;SDS011;65509;42.816;74.648;2023-03-20T00:01:35;58.40;;;27.45;;
76617;SDS011;65509;42.816;74.648;2023-03-20T00:04:01;51.00;;;18.63;;
76617;SDS011;65509;42.816;74.648;2023-03-20T00:06:27;29.77;;;10.50;;
76617;SDS011;65509;42.816;74.648;2023-03-20T00:08:56;29.30;;;9.85;;
76617;SDS011;65509;42.816;74.648;2023-03-20T00:11:32;21.77;;;8.15;;
76617;SDS011;65509;42.816;74.648;2023-03-20T00:14:35;22.00;;;7.95;;
76617;SDS011;65509;42.816;74.648;2023-03-20T00:17:00;24.33;;;8.27;;
76617;SDS011;65509;42.816;74.648;2023-03-20T00:19:35;22.50;;;8.13;;
76617;SDS011;65509;42.816;74.648;2023-03-20T00:24:25;24.30;;;8.98;;
76617;SDS011;65509;42.816;74.648;2023-03-20T00:26:51;25.33;;;9.02;;
76617;SDS011;65509;42.816;74.648;2023-03-20T00:29:24;21.50;;;7.65;;
76617;SDS011;65509;42.816;74.648;2023-03-20T00:31:50;18.20;;;7.40;;
76617;SDS011;65509;42.816;74.648;2023-03-20T00:34:16;21.45;;;8.00;;
76617;SDS011;65509;42.816;74.648;2023-03-20T00:36:43;22.58;;;10.57;;
76617;SDS011;65509;42.816;74.648;2023-03-20T00:39:09;22.00;;;8.57;;
76617;SDS011;65509;42.816;74.648;2023-03-20T00:44:13;20.83;;;8.10;;
76617;SDS011;65509;42.816;74.648;2023-03-20T00:46:43;21.20;;;7.78;;
76617;SDS011;65509;42.816;74.648;2023-03-20T00:49:10;30.90;;;10.05;;
76617;SDS011;65509;42.816;74.648;2023-03-20T00:51:36;30.38;;;10.07;;
76617;SDS011;65509;42.816;74.648;2023-03-20T00:54:09;26.15;;;10.50;;
76617;SDS011;65509;42.816;74.648;2023-03-20T00:56:36;19.80;;;8.52;;
76617;SDS011;65509;42.816;74.648;2023-03-20T00:59:04;31.17;;;10.50;;
76617;SDS011;65509;42.816;74.648;2023-03-20T01:01:31;18.23;;;7.15;;
76617;SDS011;65509;42.816;74.648;2023-03-20T01:03:57;18.38;;;6.53;;
76617;SDS011;65509;42.816;74.648;2023-03-20T01:06:23;16.73;;;6.75;;
76617;SDS011;65509;42.816;74.648;2023-03-20T01:08:48;18.77;;;6.28;;
76617;SDS011;65509;42.816;74.648;2023-03-20T01:11:15;16.50;;;6.50;;
76617;SDS011;65509;42.816;74.648;2023-03-20T01:13:41;18.63;;;7.03;;
76617;SDS011;65509;42.816;74.648;2023-03-20T01:16:16;30.98;;;8.20;;
76617;SDS011;65509;42.816;74.648;2023-03-20T01:18:43;22.63;;;6.63;;
76617;SDS011;65509;42.816;74.648;2023-03-20T01:21:08;18.52;;;7.82;;
76617;SDS011;65509;42.816;74.648;2023-03-20T01:23:33;25.20;;;8.27;;
76617;SDS011;65509;42.816;74.648;2023-03-20T01:25:59;32.70;;;9.90;;
76617;SDS011;65509;42.816;74.648;2023-03-20T01:28:26;24.58;;;7.78;;
76617;SDS011;65509;42.816;74.648;2023-03-20T01:30:53;60.97;;;36.38;;
76617;SDS011;65509;42.816;74.648;2023-03-20T01:33:20;60.22;;;39.60;;
76617;SDS011;65509;42.816;74.648;2023-03-20T01:35:46;55.42;;;26.13;;
76617;SDS011;65509;42.816;74.648;2023-03-20T01:38:17;49.05;;;19.80;;
76617;SDS011;65509;42.816;74.648;2023-03-20T01:43:14;52.83;;;20.25;;
76617;SDS011;65509;42.816;74.648;2023-03-20T01:48:18;52.17;;;19.73;;
76617;SDS011;65509;42.816;74.648;2023-03-20T01:50:45;49.33;;;20.10;;
76617;SDS011;65509;42.816;74.648;2023-03-20T01:53:18;46.47;;;18.85;;
76617;SDS011;65509;42.816;74.648;2023-03-20T01:55:45;40.30;;;16.38;;
76617;SDS011;65509;42.816;74.648;2023-03-20T01:58:15;44.25;;;17.30;;
76617;SDS011;65509;42.816;74.648;2023-03-20T02:00:41;35.15;;;12.85;;
76617;SDS011;65509;42.816;74.648;2023-03-20T02:03:07;34.83;;;14.07;;
76617;SDS011;65509;42.816;74.648;2023-03-20T02:05:33;34.10;;;13.40;;
76617;SDS011;65509;42.816;74.648;2023-03-20T02:08:16;37.45;;;15.75;;
76617;SDS011;65509;42.816;74.648;2023-03-20T02:10:44;47.83;;;17.35;;
76617;SDS011;65509;42.816;74.648;2023-03-20T02:13:10;43.33;;;18.33;;
76617;SDS011;65509;42.816;74.648;2023-03-20T02:15:50;36.40;;;16.92;;
76617;SDS011;65509;42.816;74.648;2023-03-20T02:18:17;37.83;;;16.50;;
76617;SDS011;65509;42.816;74.648;2023-03-20T02:30:54;59.28;;;28.88;;
76617;SDS011;65509;42.816;74.648;2023-03-20T02:38:44;63.75;;;25.38;;
76617;SDS011;65509;42.816;74.648;2023-03-20T02:46:35;67.30;;;26.33;;
76617;SDS011;65509;42.816;74.648;2023-03-20T02:49:18;72.05;;;26.50;;
76617;SDS011;65509;42.816;74.648;2023-03-20T02:51:56;69.57;;;25.98;;
76617;SDS011;65509;42.816;74.648;2023-03-20T03:02:55;55.45;;;23.70;;
76617;SDS011;65509;42.816;74.648;2023-03-20T03:05:28;43.97;;;20.63;;
76617;SDS011;65509;42.816;74.648;2023-03-20T03:07:56;56.92;;;22.05;;
76617;SDS011;65509;42.816;74.648;2023-03-20T03:10:25;51.85;;;24.75;;
76617;SDS011;65509;42.816;74.648;2023-03-20T03:12:53;63.65;;;27.02;;
76617;SDS011;65509;42.816;74.648;2023-03-20T03:15:31;64.13;;;25.48;;
76617;SDS011;65509;42.816;74.648;2023-03-20T03:17:58;61.72;;;24.35;;
76617;SDS011;65509;42.816;74.648;2023-03-20T03:20:28;77.40;;;28.00;;
76617;SDS011;65509;42.816;74.648;2023-03-20T03:25:54;63.33;;;24.35;;
76617;SDS011;65509;42.816;74.648;2023-03-20T03:30:45;68.00;;;30.48;;
76617;SDS011;65509;42.816;74.648;2023-03-20T03:35:44;61.05;;;25.48;;
76617;SDS011;65509;42.816;74.648;2023-03-20T03:38:25;68.97;;;24.27;;
76617;SDS011;65509;42.816;74.648;2023-03-20T03:40:56;62.90;;;26.08;;
76617;SDS011;65509;42.816;74.648;2023-03-20T03:43:34;74.72;;;28.33;;
76617;SDS011;65509;42.816;74.648;2023-03-20T03:48:50;71.93;;;26.65;;
76617;SDS011;65509;42.816;74.648;2023-03-20T03:51:17;80.28;;;30.33;;
76617;SDS011;65509;42.816;74.648;2023-03-20T03:53:47;71.20;;;30.42;;
76617;SDS011;65509;42.816;74.648;2023-03-20T03:56:15;65.43;;;28.73;;
76617;SDS011;65509;42.816;74.648;2023-03-20T03:58:42;61.67;;;24.35;;
76617;SDS011;65509;42.816;74.648;2023-03-20T04:01:09;68.03;;;25.08;;
76617;SDS011;65509;42.816;74.648;2023-03-20T04:03:39;57.45;;;21.98;;
76617;SDS011;65509;42.816;74.648;2023-03-20T04:06:06;56.08;;;22.83;;
76617;SDS011;65509;42.816;74.648;2023-03-20T04:08:34;58.13;;;20.85;;
76617;SDS011;65509;42.816;74.648;2023-03-20T04:11:02;54.53;;;18.70;;
76617;SDS011;65509;42.816;74.648;2023-03-20T04:13:31;59.60;;;19.95;;
76617;SDS011;65509;42.816;74.648;2023-03-20T04:15:56;76.22;;;21.17;;
76617;SDS011;65509;42.816;74.648;2023-03-20T04:18:21;65.45;;;20.58;;
76617;SDS011;65509;42.816;74.648;2023-03-20T04:20:47;56.67;;;20.92;;
76617;SDS011;65509;42.816;74.648;2023-03-20T04:23:16;70.72;;;22.75;;
76617;SDS011;65509;42.816;74.648;2023-03-20T04:25:42;62.22;;;24.60;;
76617;SDS011;65509;42.816;74.648;2023-03-20T04:28:07;70.30;;;23.45;;
76617;SDS011;65509;42.816;74.648;2023-03-20T04:33:32;69.65;;;26.63;;
76617;SDS011;65509;42.816;74.648;2023-03-20T04:35:58;69.43;;;26.95;;
76617;SDS011;65509;42.816;74.648;2023-03-20T04:38:23;62.58;;;23.13;;
76617;SDS011;65509;42.816;74.648;2023-03-20T04:40:49;64.38;;;25.02;;
76617;SDS011;65509;42.816;74.648;2023-03-20T04:43:24;72.18;;;24.42;;
76617;SDS011;65509;42.816;74.648;2023-03-20T04:45:49;94.80;;;25.75;;
76617;SDS011;65509;42.816;74.648;2023-03-20T04:48:15;84.35;;;25.05;;
76617;SDS011;65509;42.816;74.648;2023-03-20T04:50:43;80.10;;;24.05;;
76617;SDS011;65509;42.816;74.648;2023-03-20T04:53:12;89.25;;;23.13;;
76617;SDS011;65509;42.816;74.648;2023-03-20T04:55:38;93.50;;;21.50;;
76617;SDS011;65509;42.816;74.648;2023-03-20T04:58:21;84.72;;;23.30;;
76617;SDS011;65509;42.816;74.648;2023-03-20T05:00:50;85.90;;;21.40;;
76617;SDS011;65509;42.816;74.648;2023-03-20T05:03:15;95.80;;;24.42;;
76617;SDS011;65509;42.816;74.648;2023-03-20T05:05:41;61.50;;;20.58;;
76617;SDS011;65509;42.816;74.648;2023-03-20T05:08:06;71.40;;;18.88;;
76617;SDS011;65509;42.816;74.648;2023-03-20T05:10:32;77.03;;;20.92;;
76617;SDS011;65509;42.816;74.648;2023-03-20T05:12:57;71.07;;;17.65;;
76617;SDS011;65509;42.816;74.648;2023-03-20T05:15:22;72.75;;;18.63;;
76617;SDS011;65509;42.816;74.648;2023-03-20T05:17:48;64.95;;;17.00;;
76617;SDS011;65509;42.816;74.648;2023-03-20T05:20:14;56.05;;;15.52;;
76617;SDS011;65509;42.816;74.648;2023-03-20T05:22:39;46.80;;;14.73;;
76617;SDS011;65509;42.816;74.648;2023-03-20T05:25:05;48.25;;;17.23;;
76617;SDS011;65509;42.816;74.648;2023-03-20T05:27:33;39.95;;;14.77;;
76617;SDS011;65509;42.816;74.648;2023-03-20T05:29:59;38.92;;;12.77;;
76617;SDS011;65509;42.816;74.648;2023-03-20T05:32:25;33.08;;;12.30;;
76617;SDS011;65509;42.816;74.648;2023-03-20T05:34:50;36.95;;;12.70;;
76617;SDS011;65509;42.816;74.648;2023-03-20T05:37:27;32.95;;;12.82;;
76617;SDS011;65509;42.816;74.648;2023-03-20T05:40:14;48.08;;;13.68;;
76617;SDS011;65509;42.816;74.648;2023-03-20T05:42:40;37.03;;;12.98;;
76617;SDS011;65509;42.816;74.648;2023-03-20T05:45:06;44.20;;;11.93;;
76617;SDS011;65509;42.816;74.648;2023-03-20T05:47:31;32.25;;;11.05;;
76617;SDS011;65509;42.816;74.648;2023-03-20T05:49:57;47.45;;;12.43;;
76617;SDS011;65509;42.816;74.648;2023-03-20T05:52:31;42.47;;;11.38;;
76617;SDS011;65509;42.816;74.648;2023-03-20T05:54:57;39.97;;;11.55;;
76617;SDS011;65509;42.816;74.648;2023-03-20T05:57:22;32.95;;;11.13;;
76617;SDS011;65509;42.816;74.648;2023-03-20T05:59:51;33.45;;;11.65;;
76617;SDS011;65509;42.816;74.648;2023-03-20T06:02:17;39.38;;;12.80;;
76617;SDS011;65509;42.816;74.648;2023-03-20T06:04:43;61.92;;;15.75;;
76617;SDS011;65509;42.816;74.648;2023-03-20T06:07:10;57.67;;;15.45;;
76617;SDS011;65509;42.816;74.648;2023-03-20T06:09:36;43.90;;;12.40;;
76617;SDS011;65509;42.816;74.648;2023-03-20T06:12:11;61.83;;;17.23;;
76617;SDS011;65509;42.816;74.648;2023-03-20T06:17:36;81.53;;;19.50;;
76617;SDS011;65509;42.816;74.648;2023-03-20T06:35:49;87.82;;;31.15;;
76617;SDS011;65509;42.816;74.648;2023-03-20T06:38:26;81.10;;;30.67;;
76617;SDS011;65509;42.816;74.648;2023-03-20T06:40:51;80.40;;;31.67;;
76617;SDS011;65509;42.816;74.648;2023-03-20T06:43:26;83.90;;;33.92;;
76617;SDS011;65509;42.816;74.648;2023-03-20T06:45:57;116.70;;;39.85;;
76617;SDS011;65509;42.816;74.648;2023-03-20T06:48:26;103.68;;;40.13;;
76617;SDS011;65509;42.816;74.648;2023-03-20T06:51:12;91.82;;;37.40;;
76617;SDS011;65509;42.816;74.648;2023-03-20T06:53:55;99.65;;;37.10;;
76617;SDS011;65509;42.816;74.648;2023-03-20T06:59:21;94.32;;;32.90;;
76617;SDS011;65509;42.816;74.648;2023-03-20T07:02:28;82.35;;;31.23;;
76617;SDS011;65509;42.816;74.648;2023-03-20T07:04:50;72.70;;;28.20;;
76617;SDS011;65509;42.816;74.648;2023-03-20T07:07:43;83.40;;;29.13;;
76617;SDS011;65509;42.816;74.648;2023-03-20T07:10:26;68.82;;;27.42;;
76617;SDS011;65509;42.816;74.648;2023-03-20T07:13:02;89.25;;;31.73;;
76617;SDS011;65509;42.816;74.648;2023-03-20T07:15:30;84.97;;;31.20;;
76617;SDS011;65509;42.816;74.648;2023-03-20T07:17:56;76.72;;;27.13;;
76617;SDS011;65509;42.816;74.648;2023-03-20T07:20:21;95.88;;;34.15;;
76617;SDS011;65509;42.816;74.648;2023-03-20T07:22:53;97.00;;;33.60;;
76617;SDS011;65509;42.816;74.648;2023-03-20T07:25:19;82.18;;;31.70;;
76617;SDS011;65509;42.816;74.648;2023-03-20T07:27:45;89.50;;;31.58;;
76617;SDS011;65509;42.816;74.648;2023-03-20T07:30:15;85.93;;;30.25;;
76617;SDS011;65509;42.816;74.648;2023-03-20T07:32:43;83.05;;;27.83;;
76617;SDS011;65509;42.816;74.648;2023-03-20T07:35:17;54.55;;;18.08;;
76617;SDS011;65509;42.816;74.648;2023-03-20T07:37:52;52.08;;;17.90;;
76617;SDS011;65509;42.816;74.648;2023-03-20T07:43:22;57.17;;;16.02;;
76617;SDS011;65509;42.816;74.648;2023-03-20T07:45:48;70.80;;;19.52;;
76617;SDS011;65509;42.816;74.648;2023-03-20T07:48:25;40.83;;;14.10;;
76617;SDS011;65509;42.816;74.648;2023-03-20T07:51:06;41.33;;;12.60;;
76617;SDS011;65509;42.816;74.648;2023-03-20T07:53:31;46.78;;;13.40;;
76617;SDS011;65509;42.816;74.648;2023-03-20T08:02:44;39.60;;;13.43;;
76617;SDS011;65509;42.816;74.648;2023-03-20T08:05:37;24.13;;;10.88;;
76617;SDS011;65509;42.816;74.648;2023-03-20T08:11:29;29.88;;;12.35;;
76617;SDS011;65509;42.816;74.648;2023-03-20T08:17:24;32.20;;;13.25;;
76617;SDS011;65509;42.816;74.648;2023-03-20T08:38:04;31.38;;;11.05;;
76617;SDS011;65509;42.816;74.648;2023-03-20T08:40:31;26.40;;;10.73;;
76617;SDS011;65509;42.816;74.648;2023-03-20T08:49:38;45.25;;;13.02;;
76617;SDS011;65509;42.816;74.648;2023-03-20T08:52:04;19.92;;;10.77;;
76617;SDS011;65509;42.816;74.648;2023-03-20T08:54:33;69.13;;;26.38;;
76617;SDS011;65509;42.816;74.648;2023-03-20T08:57:27;35.67;;;12.02;;
76617;SDS011;65509;42.816;74.648;2023-03-20T08:59:53;39.72;;;17.88;;
76617;SDS011;65509;42.816;74.648;2023-03-20T09:02:21;34.80;;;12.60;;
76617;SDS011;65509;42.816;74.648;2023-03-20T09:05:10;21.45;;;10.25;;
76617;SDS011;65509;42.816;74.648;2023-03-20T09:07:36;53.92;;;18.92;;
76617;SDS011;65509;42.816;74.648;2023-03-20T09:10:02;28.88;;;12.70;;
76617;SDS011;65509;42.816;74.648;2023-03-20T09:12:28;32.53;;;12.40;;
76617;SDS011;65509;42.816;74.648;2023-03-20T09:17:50;114.68;;;29.35;;
76617;SDS011;65509;42.816;74.648;2023-03-20T09:20:24;64.32;;;24.33;;
76617;SDS011;65509;42.816;74.648;2023-03-20T09:25:40;28.90;;;13.20;;
76617;SDS011;65509;42.816;74.648;2023-03-20T09:28:06;57.67;;;16.83;;
76617;SDS011;65509;42.816;74.648;2023-03-20T09:30:31;48.65;;;19.92;;
76617;SDS011;65509;42.816;74.648;2023-03-20T09:32:57;30.00;;;13.70;;
76617;SDS011;65509;42.816;74.648;2023-03-20T09:35:27;58.38;;;17.00;;
76617;SDS011;65509;42.816;74.648;2023-03-20T09:37:55;49.55;;;18.52;;
76617;SDS011;65509;42.816;74.648;2023-03-20T09:40:22;73.50;;;29.17;;
76617;SDS011;65509;42.816;74.648;2023-03-20T09:43:07;39.92;;;16.80;;
76617;SDS011;65509;42.816;74.648;2023-03-20T09:45:43;73.57;;;22.77;;
76617;SDS011;65509;42.816;74.648;2023-03-20T09:51:03;52.08;;;17.38;;
76617;SDS011;65509;42.816;74.648;2023-03-20T09:53:38;40.97;;;16.92;;
76617;SDS011;65509;42.816;74.648;2023-03-20T09:56:13;67.53;;;24.05;;
76617;SDS011;65509;42.816;74.648;2023-03-20T09:58:44;49.33;;;20.67;;
76617;SDS011;65509;42.816;74.648;2023-03-20T10:01:33;30.50;;;11.73;;
76617;SDS011;65509;42.816;74.648;2023-03-20T10:04:45;27.95;;;12.15;;
76617;SDS011;65509;42.816;74.648;2023-03-20T10:07:14;44.28;;;15.65;;
76617;SDS011;65509;42.816;74.648;2023-03-20T10:10:04;32.47;;;12.90;;
76617;SDS011;65509;42.816;74.648;2023-03-20T10:12:37;35.28;;;13.10;;
76617;SDS011;65509;42.816;74.648;2023-03-20T10:23:57;45.88;;;15.52;;
76617;SDS011;65509;42.816;74.648;2023-03-20T10:26:36;44.72;;;14.88;;
76617;SDS011;65509;42.816;74.648;2023-03-20T10:40:51;47.88;;;16.45;;
76617;SDS011;65509;42.816;74.648;2023-03-20T10:52:29;47.50;;;15.55;;
76617;SDS011;65509;42.816;74.648;2023-03-20T10:57:51;47.00;;;15.68;;
76617;SDS011;65509;42.816;74.648;2023-03-20T11:00:27;56.17;;;18.80;;
76617;SDS011;65509;42.816;74.648;2023-03-20T11:03:16;39.60;;;15.10;;
76617;SDS011;65509;42.816;74.648;2023-03-20T11:05:48;44.38;;;17.55;;
76617;SDS011;65509;42.816;74.648;2023-03-20T11:08:55;63.47;;;22.45;;
76617;SDS011;65509;42.816;74.648;2023-03-20T11:18:04;42.97;;;19.27;;
76617;SDS011;65509;42.816;74.648;2023-03-20T11:23:58;36.80;;;12.18;;
76617;SDS011;65509;42.816;74.648;2023-03-20T11:26:31;49.38;;;15.63;;
76617;SDS011;65509;42.816;74.648;2023-03-20T11:29:06;35.42;;;12.15;;
76617;SDS011;65509;42.816;74.648;2023-03-20T11:31:33;40.47;;;13.00;;
76617;SDS011;65509;42.816;74.648;2023-03-20T11:34:08;47.90;;;16.35;;
76617;SDS011;65509;42.816;74.648;2023-03-20T11:42:21;85.82;;;25.30;;
76617;SDS011;65509;42.816;74.648;2023-03-20T11:53:57;64.00;;;19.63;;
76617;SDS011;65509;42.816;74.648;2023-03-20T12:37:11;26.30;;;12.85;;
76617;SDS011;65509;42.816;74.648;2023-03-20T12:51:26;30.40;;;12.88;;
76617;SDS011;65509;42.816;74.648;2023-03-20T12:54:36;52.42;;;16.83;;
76617;SDS011;65509;42.816;74.648;2023-03-20T13:12:06;69.55;;;27.08;;
76617;SDS011;65509;42.816;74.648;2023-03-20T13:23:30;60.22;;;21.92;;
76617;SDS011;65509;42.816;74.648;2023-03-20T13:26:20;169.88;;;66.82;;
76617;SDS011;65509;42.816;74.648;2023-03-20T13:31:30;216.90;;;93.18;;
76617;SDS011;65509;42.816;74.648;2023-03-20T13:41:45;253.30;;;80.90;;
76617;SDS011;65509;42.816;74.648;2023-03-20T13:44:24;91.47;;;36.47;;
76617;SDS011;65509;42.816;74.648;2023-03-20T13:52:29;70.35;;;29.73;;
76617;SDS011;65509;42.816;74.648;2023-03-20T14:15:14;90.03;;;31.00;;
76617;SDS011;65509;42.816;74.648;2023-03-20T14:17:43;83.10;;;31.23;;
76617;SDS011;65509;42.816;74.648;2023-03-20T14:20:27;85.20;;;33.05;;
76617;SDS011;65509;42.816;74.648;2023-03-20T14:22:57;88.85;;;36.53;;
76617;SDS011;65509;42.816;74.648;2023-03-20T14:25:22;79.30;;;34.70;;
76617;SDS011;65509;42.816;74.648;2023-03-20T14:27:58;87.57;;;29.27;;
76617;SDS011;65509;42.816;74.648;2023-03-20T14:50:13;79.70;;;33.47;;
76617;SDS011;65509;42.816;74.648;2023-03-20T14:53:11;95.80;;;35.42;;
76617;SDS011;65509;42.816;74.648;2023-03-20T14:58:55;95.65;;;34.17;;
76617;SDS011;65509;42.816;74.648;2023-03-20T15:01:05;87.53;;;33.92;;
76617;SDS011;65509;42.816;74.648;2023-03-20T15:03:38;79.22;;;34.17;;
76617;SDS011;65509;42.816;74.648;2023-03-20T15:06:05;76.85;;;32.83;;
76617;SDS011;65509;42.816;74.648;2023-03-20T15:08:36;86.90;;;33.10;;
76617;SDS011;65509;42.816;74.648;2023-03-20T15:13:44;77.28;;;30.15;;
76617;SDS011;65509;42.816;74.648;2023-03-20T15:16:12;73.85;;;29.67;;
76617;SDS011;65509;42.816;74.648;2023-03-20T15:18:43;94.72;;;32.28;;
76617;SDS011;65509;42.816;74.648;2023-03-20T15:21:19;75.55;;;28.65;;
76617;SDS011;65509;42.816;74.648;2023-03-20T15:23:51;74.50;;;30.17;;
76617;SDS011;65509;42.816;74.648;2023-03-20T15:26:17;137.57;;;54.78;;
76617;SDS011;65509;42.816;74.648;2023-03-20T15:28:44;175.43;;;71.55;;
76617;SDS011;65509;42.816;74.648;2023-03-20T15:34:06;158.43;;;59.13;;
76617;SDS011;65509;42.816;74.648;2023-03-20T15:36:40;131.40;;;50.53;;
76617;SDS011;65509;42.816;74.648;2023-03-20T15:39:13;103.03;;;38.40;;
76617;SDS011;65509;42.816;74.648;2023-03-20T15:41:42;87.40;;;34.25;;
76617;SDS011;65509;42.816;74.648;2023-03-20T15:47:14;75.28;;;31.60;;
76617;SDS011;65509;42.816;74.648;2023-03-20T15:55:53;86.63;;;33.90;;
76617;SDS011;65509;42.816;74.648;2023-03-20T15:58:22;100.05;;;34.10;;
76617;SDS011;65509;42.816;74.648;2023-03-20T16:00:57;108.72;;;35.42;;
76617;SDS011;65509;42.816;74.648;2023-03-20T16:03:24;76.25;;;29.65;;
76617;SDS011;65509;42.816;74.648;2023-03-20T16:05:50;84.15;;;28.90;;
76617;SDS011;65509;42.816;74.648;2023-03-20T16:08:33;66.07;;;28.63;;
76617;SDS011;65509;42.816;74.648;2023-03-20T16:11:14;81.32;;;29.00;;
76617;SDS011;65509;42.816;74.648;2023-03-20T16:13:45;71.85;;;26.25;;
76617;SDS011;65509;42.816;74.648;2023-03-20T16:16:13;65.82;;;26.02;;
76617;SDS011;65509;42.816;74.648;2023-03-20T16:18:39;68.25;;;24.25;;
76617;SDS011;65509;42.816;74.648;2023-03-20T16:21:11;69.43;;;27.10;;
76617;SDS011;65509;42.816;74.648;2023-03-20T16:23:46;90.95;;;31.85;;
76617;SDS011;65509;42.816;74.648;2023-03-20T16:26:21;66.68;;;27.25;;
76617;SDS011;65509;42.816;74.648;2023-03-20T16:34:17;76.15;;;28.40;;
76617;SDS011;65509;42.816;74.648;2023-03-20T16:36:53;70.07;;;25.15;;
76617;SDS011;65509;42.816;74.648;2023-03-20T16:39:20;65.68;;;25.00;;
76617;SDS011;65509;42.816;74.648;2023-03-20T16:44:46;108.03;;;40.83;;
76617;SDS011;65509;42.816;74.648;2023-03-20T16:47:16;130.23;;;46.85;;
76617;SDS011;65509;42.816;74.648;2023-03-20T16:50:02;127.37;;;44.23;;
76617;SDS011;65509;42.816;74.648;2023-03-20T16:52:45;105.90;;;41.67;;
76617;SDS011;65509;42.816;74.648;2023-03-20T16:58:44;95.07;;;34.00;;
76617;SDS011;65509;42.816;74.648;2023-03-20T17:01:26;66.07;;;29.25;;
76617;SDS011;65509;42.816;74.648;2023-03-20T17:03:53;72.55;;;27.80;;
76617;SDS011;65509;42.816;74.648;2023-03-20T17:14:33;60.60;;;23.02;;
76617;SDS011;65509;42.816;74.648;2023-03-20T17:17:14;77.60;;;22.90;;
76617;SDS011;65509;42.816;74.648;2023-03-20T17:19:52;79.00;;;25.13;;
76617;SDS011;65509;42.816;74.648;2023-03-20T17:22:37;61.72;;;22.20;;
76617;SDS011;65509;42.816;74.648;2023-03-20T17:25:03;63.28;;;22.50;;
76617;SDS011;65509;42.816;74.648;2023-03-20T17:27:29;44.30;;;20.05;;
76617;SDS011;65509;42.816;74.648;2023-03-20T17:30:17;55.25;;;21.00;;
76617;SDS011;65509;42.816;74.648;2023-03-20T17:32:44;68.07;;;21.73;;
76617;SDS011;65509;42.816;74.648;2023-03-20T17:35:12;55.40;;;20.95;;
76617;SDS011;65509;42.816;74.648;2023-03-20T17:37:41;60.72;;;22.83;;
76617;SDS011;65509;42.816;74.648;2023-03-20T17:40:27;63.88;;;22.77;;
76617;SDS011;65509;42.816;74.648;2023-03-20T17:42:53;67.35;;;22.33;;
76617;SDS011;65509;42.816;74.648;2023-03-20T17:45:25;46.85;;;21.33;;
76617;SDS011;65509;42.816;74.648;2023-03-20T17:47:58;61.25;;;21.42;;
76617;SDS011;65509;42.816;74.648;2023-03-20T17:50:26;55.58;;;22.67;;
76617;SDS011;65509;42.816;74.648;2023-03-20T17:53:09;54.88;;;20.95;;
76617;SDS011;65509;42.816;74.648;2023-03-20T17:55:38;61.38;;;24.17;;
76617;SDS011;65509;42.816;74.648;2023-03-20T18:01:24;59.08;;;25.02;;
76617;SDS011;65509;42.816;74.648;2023-03-20T18:06:36;66.15;;;26.17;;
76617;SDS011;65509;42.816;74.648;2023-03-20T18:09:09;66.72;;;26.27;;
76617;SDS011;65509;42.816;74.648;2023-03-20T18:11:38;59.00;;;24.90;;
76617;SDS011;65509;42.816;74.648;2023-03-20T18:14:07;69.90;;;25.05;;
76617;SDS011;65509;42.816;74.648;2023-03-20T18:16:43;59.78;;;24.52;;
76617;SDS011;65509;42.816;74.648;2023-03-20T18:19:26;67.90;;;24.88;;
76617;SDS011;65509;42.816;74.648;2023-03-20T18:21:55;68.10;;;26.13;;
76617;SDS011;65509;42.816;74.648;2023-03-20T18:24:21;59.75;;;25.70;;
76617;SDS011;65509;42.816;74.648;2023-03-20T18:26:49;74.70;;;26.00;;
76617;SDS011;65509;42.816;74.648;2023-03-20T18:29:18;63.28;;;25.60;;
76617;SDS011;65509;42.816;74.648;2023-03-20T18:31:49;71.78;;;27.08;;
76617;SDS011;65509;42.816;74.648;2023-03-20T18:34:27;76.85;;;34.67;;
76617;SDS011;65509;42.816;74.648;2023-03-20T18:36:55;103.05;;;40.88;;
76617;SDS011;65509;42.816;74.648;2023-03-20T18:39:54;115.25;;;45.70;;
76617;SDS011;65509;42.816;74.648;2023-03-20T18:42:13;113.85;;;44.47;;
76617;SDS011;65509;42.816;74.648;2023-03-20T18:45:08;128.45;;;49.42;;
76617;SDS011;65509;42.816;74.648;2023-03-20T18:50:22;90.18;;;35.83;;
76617;SDS011;65509;42.816;74.648;2023-03-20T18:52:49;79.63;;;31.00;;
76617;SDS011;65509;42.816;74.648;2023-03-20T18:55:33;75.22;;;30.52;;
76617;SDS011;65509;42.816;74.648;2023-03-20T18:58:02;68.72;;;29.08;;
76617;SDS011;65509;42.816;74.648;2023-03-20T19:03:25;69.22;;;28.25;;
76617;SDS011;65509;42.816;74.648;2023-03-20T19:05:53;81.45;;;28.80;;
76617;SDS011;65509;42.816;74.648;2023-03-20T19:08:19;72.03;;;29.60;;
76617;SDS011;65509;42.816;74.648;2023-03-20T19:10:45;81.70;;;32.60;;
76617;SDS011;65509;42.816;74.648;2023-03-20T19:13:14;88.82;;;34.25;;
76617;SDS011;65509;42.816;74.648;2023-03-20T19:15:43;84.97;;;32.67;;
76617;SDS011;65509;42.816;74.648;2023-03-20T19:18:13;78.57;;;32.75;;
76617;SDS011;65509;42.816;74.648;2023-03-20T19:20:43;72.20;;;28.42;;
76617;SDS011;65509;42.816;74.648;2023-03-20T19:23:15;72.28;;;28.80;;
76617;SDS011;65509;42.816;74.648;2023-03-20T19:25:44;85.15;;;32.85;;
76617;SDS011;65509;42.816;74.648;2023-03-20T19:28:19;79.05;;;36.25;;
76617;SDS011;65509;42.816;74.648;2023-03-20T19:30:45;86.53;;;38.25;;
76617;SDS011;65509;42.816;74.648;2023-03-20T19:33:14;78.20;;;35.28;;
76617;SDS011;65509;42.816;74.648;2023-03-20T19:35:39;101.35;;;44.30;;
76617;SDS011;65509;42.816;74.648;2023-03-20T19:38:12;112.00;;;43.67;;
76617;SDS011;65509;42.816;74.648;2023-03-20T19:40:42;95.15;;;36.92;;
76617;SDS011;65509;42.816;74.648;2023-03-20T19:43:08;82.18;;;35.50;;
76617;SDS011;65509;42.816;74.648;2023-03-20T19:45:40;77.47;;;32.25;;
76617;SDS011;65509;42.816;74.648;2023-03-20T19:48:14;69.05;;;30.52;;
76617;SDS011;65509;42.816;74.648;2023-03-20T19:50:40;79.00;;;32.03;;
76617;SDS011;65509;42.816;74.648;2023-03-20T19:53:15;64.55;;;29.10;;
76617;SDS011;65509;42.816;74.648;2023-03-20T19:55:48;97.40;;;34.17;;
76617;SDS011;65509;42.816;74.648;2023-03-20T19:58:24;91.18;;;33.83;;
76617;SDS011;65509;42.816;74.648;2023-03-20T20:00:49;94.38;;;35.53;;
76617;SDS011;65509;42.816;74.648;2023-03-20T20:03:48;74.75;;;31.98;;
76617;SDS011;65509;42.816;74.648;2023-03-20T20:06:23;87.03;;;32.45;;
76617;SDS011;65509;42.816;74.648;2023-03-20T20:08:51;90.70;;;32.13;;
76617;SDS011;65509;42.816;74.648;2023-03-20T20:11:19;81.10;;;32.33;;
76617;SDS011;65509;42.816;74.648;2023-03-20T20:13:45;73.30;;;29.73;;
76617;SDS011;65509;42.816;74.648;2023-03-20T20:16:13;64.75;;;28.10;;
76617;SDS011;65509;42.816;74.648;2023-03-20T20:18:39;61.88;;;25.50;;
76617;SDS011;65509;42.816;74.648;2023-03-20T20:21:04;72.65;;;27.80;;
76617;SDS011;65509;42.816;74.648;2023-03-20T20:23:30;72.15;;;27.13;;
76617;SDS011;65509;42.816;74.648;2023-03-20T20:25:56;74.47;;;30.88;;
76617;SDS011;65509;42.816;74.648;2023-03-20T20:28:22;84.70;;;30.92;;
76617;SDS011;65509;42.816;74.648;2023-03-20T20:30:48;80.68;;;33.42;;
76617;SDS011;65509;42.816;74.648;2023-03-20T20:33:15;85.65;;;32.63;;
76617;SDS011;65509;42.816;74.648;2023-03-20T20:35:43;77.18;;;33.40;;